Fredericktown, Ohio
Current Conditions -  °F | °C
As of 1:15 PM on Friday 24 Oct 2014 (Local Time) from K4I3 Reporting Station
Clear Clear  
Wind Chill: 61°   Ceiling: Unl
Heat Index: 61°   Visibility: 10mi
Dew Point: 41°   Wind: 6mph
Humidity: 48%   Direction: 210°SSW
Pressure: 30.07"   Gusts: NA
Location:  40.48°N, 82.54°W
Report Text: K4I3 241715Z AUTO 21005KT 10SM CLR 16/05 A3007 RMK AO2
Loading
Personal Weather Stations






























Interactive Weather Map
Tropical Storm Tracking
New forecast layout! Learn more

10-Day Weather Forecast

Advertisements
Track Severe Weather on mobile